Mexico, Indiana
Current Conditions -  °F | °C
As of 10:29 AM on Monday 24 Nov 2014 (Local Time) from KGUS Reporting Station
Light Rain Light Rain  
Wind Chill: 30°   Ceiling: 800
Heat Index: 41°   Visibility: 7mi
Dew Point: 41°   Wind: 29mph
Humidity: 100%   Direction: 240°WSW
Pressure: 29.29"   Gusts: 40mph
Location:  40.82°N, 86.12°W
Report Text: KGUS 241529Z 24025G35KT 7SM -RA OVC008 05/05 A2929 RMK PRESRR
Loading
Personal Weather Stations






























Interactive Weather Map New forecast layout! Learn more

10-Day Weather Forecast

Advertisements
Track Severe Weather on mobile